createdAt,value
2022-08-26T00:01:56.688Z,2.50
2022-08-26T00:04:26.209Z,2.88
2022-08-26T00:06:56.499Z,3.75
2022-08-26T00:09:25.247Z,2.45
2022-08-26T00:11:53.910Z,3.95
2022-08-26T00:14:24.169Z,2.90
2022-08-26T00:16:56.504Z,2.65
2022-08-26T00:19:24.538Z,2.50
2022-08-26T00:21:53.412Z,4.25
2022-08-26T00:24:23.016Z,4.50
2022-08-26T00:26:51.791Z,3.60
2022-08-26T00:29:21.236Z,3.70
2022-08-26T00:31:49.543Z,3.38
2022-08-26T00:34:19.559Z,2.05
2022-08-26T00:36:47.872Z,1.63
2022-08-26T00:39:20.148Z,1.50
2022-08-26T00:41:50.103Z,4.38
2022-08-26T00:44:19.561Z,3.10
2022-08-26T00:46:50.460Z,2.40
2022-08-26T00:49:23.045Z,1.80
2022-08-26T00:51:55.027Z,1.88
2022-08-26T00:54:28.722Z,3.13
2022-08-26T00:57:01.836Z,2.00
2022-08-26T00:59:32.944Z,2.33
2022-08-26T01:02:02.803Z,1.73
2022-08-26T01:04:33.451Z,1.45
2022-08-26T01:07:01.593Z,2.00
2022-08-26T01:09:31.364Z,1.73
2022-08-26T01:12:03.512Z,1.90
2022-08-26T01:14:34.371Z,1.27
2022-08-26T01:17:07.436Z,1.90
2022-08-26T01:19:43.535Z,3.10
2022-08-26T01:22:18.217Z,6.03
2022-08-26T01:24:48.958Z,1.40
2022-08-26T01:27:20.625Z,1.50
2022-08-26T01:29:50.481Z,2.13
2022-08-26T01:32:23.387Z,1.95
2022-08-26T01:34:52.766Z,2.08
2022-08-26T01:37:24.140Z,1.63
2022-08-26T01:39:55.747Z,2.35
2022-08-26T01:42:27.336Z,1.40
2022-08-26T01:45:02.014Z,1.77
2022-08-26T01:47:32.021Z,2.50
2022-08-26T01:50:03.986Z,1.52
2022-08-26T01:52:35.486Z,1.30
2022-08-26T01:55:07.389Z,3.75
2022-08-26T01:57:36.968Z,1.67
2022-08-26T02:00:08.646Z,1.25
2022-08-26T02:02:40.473Z,1.27
2022-08-26T02:05:15.673Z,1.08
2022-08-26T02:07:45.221Z,1.20
2022-08-26T02:10:14.971Z,1.15
2022-08-26T02:12:43.188Z,2.08
2022-08-26T02:15:13.652Z,1.75
2022-08-26T02:17:44.490Z,1.27
2022-08-26T02:20:15.027Z,1.90
2022-08-26T02:22:45.480Z,1.30
2022-08-26T02:25:20.927Z,3.17
2022-08-26T02:27:49.238Z,2.40
2022-08-26T02:30:20.137Z,2.40
2022-08-26T02:32:49.618Z,1.77
2022-08-26T02:35:20.316Z,1.15
2022-08-26T02:37:49.446Z,1.67
2022-08-26T02:40:22.557Z,2.45
2022-08-26T02:42:53.001Z,2.80
2022-08-26T02:45:24.750Z,1.52
2022-08-26T02:47:53.421Z,1.27
2022-08-26T02:50:22.237Z,1.92
2022-08-26T02:52:50.200Z,1.65
2022-08-26T02:55:20.002Z,2.42
2022-08-26T02:57:48.065Z,1.63
2022-08-26T03:00:17.512Z,0.98
2022-08-26T03:02:46.284Z,0.80
2022-08-26T03:05:14.460Z,1.27
2022-08-26T03:07:43.849Z,2.00
2022-08-26T03:10:13.613Z,1.60
2022-08-26T03:12:48.111Z,1.42
2022-08-26T03:15:18.434Z,1.75
2022-08-26T03:17:48.148Z,1.25
2022-08-26T03:20:17.399Z,2.03
2022-08-26T03:22:46.685Z,2.05
2022-08-26T03:25:17.646Z,1.17
2022-08-26T03:27:47.293Z,1.77
2022-08-26T03:30:33.520Z,1.17
2022-08-26T03:33:01.999Z,1.63
2022-08-26T03:35:30.399Z,3.58
2022-08-26T03:37:58.477Z,2.50
2022-08-26T03:40:29.106Z,3.72
2022-08-26T03:42:58.596Z,1.45
2022-08-26T03:45:27.937Z,2.58
2022-08-26T03:47:56.114Z,1.88
2022-08-26T03:50:27.090Z,4.20
2022-08-26T03:52:56.019Z,0.98
2022-08-26T03:55:25.665Z,1.42
2022-08-26T03:57:55.828Z,2.47
2022-08-26T04:00:25.573Z,0.88
2022-08-26T04:02:53.667Z,0.98
2022-08-26T04:05:23.635Z,1.20
2022-08-26T04:07:52.410Z,1.77
2022-08-26T04:10:29.253Z,1.95
2022-08-26T04:12:58.703Z,2.72
2022-08-26T04:15:28.924Z,1.25
2022-08-26T04:17:57.341Z,1.58
2022-08-26T04:20:25.912Z,2.10
2022-08-26T04:22:54.007Z,1.20
2022-08-26T04:25:22.564Z,1.17
2022-08-26T04:27:52.438Z,1.13
2022-08-26T04:30:21.251Z,2.28
2022-08-26T04:32:51.031Z,2.53
2022-08-26T04:35:22.784Z,1.95
2022-08-26T04:37:54.195Z,1.45
2022-08-26T04:40:22.224Z,1.80
2022-08-26T04:42:50.293Z,1.10
2022-08-26T04:45:19.228Z,1.92
2022-08-26T04:47:56.427Z,1.58
2022-08-26T04:50:26.675Z,2.55
2022-08-26T04:52:55.373Z,1.70
2022-08-26T04:55:38.201Z,1.25
2022-08-26T04:58:10.367Z,1.27
2022-08-26T05:00:39.492Z,1.70
2022-08-26T05:03:10.305Z,1.58
2022-08-26T05:05:40.888Z,3.47
2022-08-26T05:08:08.956Z,1.58
2022-08-26T05:10:40.925Z,1.40
2022-08-26T05:13:11.211Z,1.73
2022-08-26T05:15:40.237Z,3.05
2022-08-26T05:18:11.232Z,3.00
2022-08-26T05:20:41.162Z,2.42
2022-08-26T05:23:09.571Z,1.85
2022-08-26T05:25:39.636Z,1.60
2022-08-26T05:28:07.803Z,2.63
2022-08-26T05:30:36.132Z,1.98
2022-08-26T05:33:04.393Z,1.23
2022-08-26T05:35:34.476Z,1.50
2022-08-26T05:38:03.705Z,1.95
2022-08-26T05:40:36.380Z,2.03
2022-08-26T05:43:08.098Z,3.17
2022-08-26T05:45:42.334Z,1.92
2022-08-26T05:48:15.198Z,1.35
2022-08-26T05:50:48.768Z,1.58
2022-08-26T05:53:20.768Z,1.27
2022-08-26T05:55:52.652Z,3.22
2022-08-26T05:58:22.466Z,1.40
2022-08-26T06:00:58.942Z,2.00
2022-08-26T06:03:27.689Z,1.65
2022-08-26T06:05:57.033Z,3.63
2022-08-26T06:08:25.656Z,2.50
2022-08-26T06:10:56.262Z,1.77
2022-08-26T06:13:26.839Z,3.08
2022-08-26T06:15:56.560Z,1.52
2022-08-26T06:18:32.530Z,1.15
2022-08-26T06:21:03.318Z,2.67
2022-08-26T06:23:48.772Z,2.35
2022-08-26T06:26:18.256Z,0.88
2022-08-26T06:28:46.316Z,1.65
2022-08-26T06:31:15.846Z,1.60
2022-08-26T06:33:44.228Z,3.35
2022-08-26T06:36:19.447Z,4.05
2022-08-26T06:38:48.676Z,3.88
2022-08-26T06:41:18.018Z,4.70
2022-08-26T06:43:46.264Z,5.72
2022-08-26T06:46:17.294Z,9.32
2022-08-26T06:48:45.752Z,16.80
2022-08-26T06:51:16.636Z,6.93
2022-08-26T06:53:48.303Z,7.35
2022-08-26T06:56:19.270Z,9.07
2022-08-26T06:58:47.649Z,6.80
2022-08-26T07:01:17.199Z,7.20
2022-08-26T07:03:47.072Z,15.27
2022-08-26T07:06:18.545Z,7.25
2022-08-26T07:08:48.189Z,4.13
2022-08-26T07:11:16.986Z,5.78
2022-08-26T07:13:45.066Z,6.60
2022-08-26T07:16:16.908Z,6.28
2022-08-26T07:18:45.420Z,3.75
2022-08-26T07:21:16.649Z,4.75
2022-08-26T07:23:46.399Z,4.97
2022-08-26T07:26:18.493Z,4.05
2022-08-26T07:28:48.861Z,4.28
2022-08-26T07:31:17.781Z,4.90
2022-08-26T07:33:46.805Z,2.97
2022-08-26T07:36:15.949Z,4.05
2022-08-26T07:38:45.255Z,3.40
2022-08-26T07:41:15.197Z,5.72
2022-08-26T07:43:45.529Z,2.90
2022-08-26T07:46:18.565Z,3.47
2022-08-26T07:48:56.389Z,1.98
2022-08-26T07:51:24.976Z,2.10
2022-08-26T07:53:54.243Z,1.55
2022-08-26T07:56:23.406Z,3.03
2022-08-26T07:58:52.977Z,2.13
2022-08-26T08:01:21.106Z,1.00
2022-08-26T08:03:51.589Z,3.25
2022-08-26T08:06:20.020Z,2.75
2022-08-26T08:08:50.744Z,1.73
2022-08-26T08:11:21.123Z,1.40
2022-08-26T08:13:49.790Z,1.98
2022-08-26T08:16:26.271Z,1.08
2022-08-26T08:18:54.545Z,0.73
2022-08-26T08:21:24.346Z,1.45
2022-08-26T08:23:53.669Z,1.05
2022-08-26T08:26:22.188Z,0.60
2022-08-26T08:28:50.640Z,2.42
2022-08-26T08:31:45.108Z,1.42
2022-08-26T08:34:12.981Z,0.68
2022-08-26T08:36:40.977Z,2.08
2022-08-26T08:39:09.773Z,0.38
2022-08-26T08:41:49.406Z,1.13
2022-08-26T08:46:57.752Z,0.80
2022-08-26T08:49:28.347Z,3.60
2022-08-26T08:52:02.492Z,0.57
2022-08-26T08:54:33.943Z,1.58
2022-08-26T08:57:07.257Z,1.15
2022-08-26T08:59:38.531Z,0.38
2022-08-26T09:02:19.381Z,1.02
2022-08-26T09:05:04.520Z,2.33
2022-08-26T09:07:37.759Z,1.75
2022-08-26T09:10:24.140Z,0.50
2022-08-26T09:12:53.240Z,3.50
2022-08-26T09:15:27.441Z,0.90
2022-08-26T09:18:09.550Z,0.40
2022-08-26T09:20:49.828Z,0.50
2022-08-26T09:23:19.173Z,1.15
2022-08-26T09:25:50.127Z,0.40
2022-08-26T09:28:20.014Z,0.63
2022-08-26T09:30:59.942Z,0.55
2022-08-26T09:33:29.884Z,1.23
2022-08-26T09:38:53.868Z,1.48
2022-08-26T09:41:31.632Z,1.73
2022-08-26T09:44:18.031Z,0.52
2022-08-26T09:46:55.317Z,1.08
2022-08-26T09:49:36.116Z,0.85
2022-08-26T09:52:15.538Z,1.00
2022-08-26T09:54:46.166Z,0.60
2022-08-26T09:57:25.918Z,0.50
2022-08-26T09:59:54.277Z,0.40
2022-08-26T10:02:47.954Z,0.60
2022-08-26T10:05:30.581Z,0.47
2022-08-26T10:08:00.246Z,1.45
2022-08-26T10:10:36.725Z,0.80
2022-08-26T10:13:10.374Z,0.55
2022-08-26T10:15:50.679Z,0.75
2022-08-26T10:18:24.713Z,0.93
2022-08-26T10:20:58.905Z,0.70
2022-08-26T10:23:32.766Z,0.40
2022-08-26T10:26:09.660Z,0.55
2022-08-26T10:28:44.771Z,0.30
2022-08-26T10:31:28.852Z,0.88
2022-08-26T10:34:00.346Z,1.13
2022-08-26T10:37:14.681Z,0.60
2022-08-26T10:39:46.027Z,1.10
2022-08-26T10:42:23.035Z,0.70
2022-08-26T10:44:58.547Z,0.40
2022-08-26T10:47:31.834Z,0.60
2022-08-26T10:50:03.293Z,0.95
2022-08-26T10:52:43.472Z,0.40
2022-08-26T10:55:17.881Z,1.27
2022-08-26T10:57:56.489Z,1.05
2022-08-26T11:00:48.064Z,0.47
2022-08-26T11:03:31.189Z,0.50
2022-08-26T11:06:23.075Z,0.50
2022-08-26T11:08:52.712Z,0.32
2022-08-26T11:11:45.367Z,0.52
2022-08-26T11:14:53.522Z,0.60
2022-08-26T11:17:58.385Z,0.70
2022-08-26T11:20:39.122Z,0.50
2022-08-26T11:23:50.520Z,0.30
2022-08-26T11:26:35.652Z,0.35
2022-08-26T11:29:12.066Z,0.25
2022-08-26T11:31:57.423Z,0.50
2022-08-26T11:34:56.218Z,0.40
2022-08-26T11:37:36.500Z,0.43
2022-08-26T11:40:10.518Z,0.57
2022-08-26T11:42:43.417Z,0.40
2022-08-26T11:45:20.536Z,0.30
2022-08-26T11:47:50.058Z,0.77
2022-08-26T11:50:21.596Z,0.40
2022-08-26T11:52:54.875Z,0.45
2022-08-26T11:55:24.246Z,0.60
2022-08-26T11:57:55.445Z,0.30
2022-08-26T12:00:26.506Z,0.65
2022-08-26T12:02:56.053Z,0.47
2022-08-26T12:05:30.963Z,0.50
2022-08-26T12:08:07.140Z,0.40
2022-08-26T12:10:36.821Z,0.45
2022-08-26T12:13:07.292Z,0.40
2022-08-26T12:15:36.618Z,1.25
2022-08-26T12:18:28.741Z,1.67
2022-08-26T12:20:59.820Z,0.55
2022-08-26T12:23:37.873Z,0.50
2022-08-26T12:26:10.473Z,0.47
2022-08-26T12:28:44.725Z,0.50
2022-08-26T12:31:13.271Z,0.35
2022-08-26T12:33:47.013Z,0.57
2022-08-26T12:36:22.962Z,0.50
2022-08-26T12:38:51.139Z,0.57
2022-08-26T12:41:48.183Z,0.50
2022-08-26T12:44:42.253Z,0.40
2022-08-26T12:47:41.784Z,0.30
2022-08-26T12:50:19.661Z,0.65
2022-08-26T12:52:57.521Z,1.20
2022-08-26T12:55:35.540Z,0.40
2022-08-26T12:58:29.640Z,0.40
2022-08-26T13:00:59.423Z,0.40
2022-08-26T13:03:43.429Z,0.50
2022-08-26T13:06:27.944Z,1.10
2022-08-26T13:08:59.057Z,1.35
2022-08-26T13:11:31.552Z,0.63
2022-08-26T13:14:02.200Z,0.47
2022-08-26T13:16:35.563Z,0.50
2022-08-26T13:19:10.374Z,0.57
2022-08-26T13:21:44.722Z,0.47
2022-08-26T13:24:15.097Z,0.40
2022-08-26T13:26:45.718Z,0.40
2022-08-26T13:29:14.244Z,0.70
2022-08-26T13:31:44.995Z,0.50
2022-08-26T13:34:15.695Z,0.50
2022-08-26T13:36:45.195Z,0.50
2022-08-26T13:39:13.996Z,0.60
2022-08-26T13:41:42.426Z,0.40
2022-08-26T13:44:11.519Z,0.43
2022-08-26T13:46:39.566Z,0.60
2022-08-26T13:49:08.285Z,0.50
2022-08-26T13:51:36.296Z,0.52
2022-08-26T13:54:06.572Z,0.45
2022-08-26T13:56:35.297Z,0.40
2022-08-26T13:59:03.449Z,0.80
2022-08-26T14:01:33.172Z,0.52
2022-08-26T14:04:03.135Z,0.98
2022-08-26T14:06:31.495Z,1.75
2022-08-26T14:08:59.837Z,0.50
2022-08-26T14:11:29.523Z,0.50
2022-08-26T14:14:07.104Z,0.40
2022-08-26T14:16:38.768Z,0.40
2022-08-26T14:19:26.720Z,0.45
2022-08-26T14:21:54.695Z,0.40
2022-08-26T14:24:22.668Z,0.52
2022-08-26T14:26:51.983Z,0.50
2022-08-26T14:29:19.978Z,0.40
2022-08-26T14:31:48.362Z,1.25
2022-08-26T14:34:16.433Z,0.40
2022-08-26T14:36:44.341Z,0.30
2022-08-26T14:39:14.678Z,0.57
2022-08-26T14:41:53.923Z,0.40
2022-08-26T14:44:27.934Z,0.52
2022-08-26T14:46:56.442Z,0.35
2022-08-26T14:49:27.271Z,0.65
2022-08-26T14:51:56.408Z,0.85
2022-08-26T14:54:23.345Z,0.40
2022-08-26T14:56:53.892Z,0.57
2022-08-26T14:59:25.459Z,0.50
2022-08-26T15:01:54.394Z,0.43
2022-08-26T15:04:23.166Z,0.70
2022-08-26T15:06:52.034Z,0.40
2022-08-26T15:09:20.010Z,0.47
2022-08-26T15:11:48.512Z,0.32
2022-08-26T15:14:19.640Z,0.43
2022-08-26T15:16:50.215Z,0.40
2022-08-26T15:19:18.795Z,0.30
2022-08-26T15:21:47.302Z,0.88
2022-08-26T15:24:17.927Z,0.50
2022-08-26T15:26:46.741Z,0.40
2022-08-26T15:29:15.106Z,1.38
2022-08-26T15:31:43.389Z,0.40
2022-08-26T15:34:16.728Z,0.63
2022-08-26T15:36:46.319Z,0.50
2022-08-26T15:39:15.917Z,0.40
2022-08-26T15:41:44.050Z,0.95
2022-08-26T15:44:13.769Z,0.60
2022-08-26T15:46:42.159Z,0.40
2022-08-26T15:49:18.549Z,0.77
2022-08-26T15:51:50.462Z,0.50
2022-08-26T15:54:21.007Z,0.40
2022-08-26T15:56:52.084Z,0.40
2022-08-26T15:59:22.222Z,0.40
2022-08-26T16:01:50.648Z,0.43
2022-08-26T16:04:18.725Z,0.30
2022-08-26T16:06:51.537Z,0.43
2022-08-26T16:09:20.301Z,0.40
2022-08-26T16:11:48.294Z,0.40
2022-08-26T16:14:16.569Z,0.50
2022-08-26T16:16:44.601Z,0.50
2022-08-26T16:19:12.649Z,0.52
2022-08-26T16:21:41.780Z,2.88
2022-08-26T16:24:11.957Z,0.50
2022-08-26T16:26:41.894Z,0.50
2022-08-26T16:29:13.870Z,0.30
2022-08-26T16:31:42.841Z,0.40
2022-08-26T16:34:11.556Z,0.50
2022-08-26T16:36:40.510Z,0.50
2022-08-26T16:39:09.796Z,0.50
2022-08-26T16:41:39.448Z,0.40
2022-08-26T16:44:08.854Z,0.40
2022-08-26T16:46:37.007Z,0.40
2022-08-26T16:49:05.095Z,0.60
2022-08-26T16:51:37.929Z,0.47
2022-08-26T16:54:07.910Z,1.85
2022-08-26T16:56:36.961Z,0.40
2022-08-26T16:59:07.318Z,2.55
2022-08-26T17:01:35.791Z,0.40
2022-08-26T17:04:04.336Z,0.60
2022-08-26T17:06:32.655Z,0.35
2022-08-26T17:09:00.636Z,0.40
2022-08-26T17:11:28.631Z,0.35
2022-08-26T17:13:57.025Z,0.40
2022-08-26T17:16:27.248Z,0.60
2022-08-26T17:18:56.225Z,0.77
2022-08-26T17:21:24.265Z,0.40
2022-08-26T17:23:52.233Z,0.38
2022-08-26T17:26:20.261Z,0.30
2022-08-26T17:28:48.226Z,0.40
2022-08-26T17:31:16.296Z,0.40
2022-08-26T17:33:48.857Z,0.30
2022-08-26T17:36:21.229Z,0.70
2022-08-26T17:38:50.633Z,0.30
2022-08-26T17:41:22.264Z,0.35
2022-08-26T17:43:50.460Z,0.98
2022-08-26T17:46:18.500Z,6.43
2022-08-26T17:48:48.326Z,0.77
2022-08-26T17:51:19.229Z,0.45
2022-08-26T17:53:48.655Z,0.47
2022-08-26T17:56:19.812Z,0.30
2022-08-26T17:58:51.599Z,0.40
2022-08-26T18:01:20.532Z,0.30
2022-08-26T18:03:50.424Z,0.80
2022-08-26T18:06:19.111Z,1.05
2022-08-26T18:08:47.151Z,0.68
2022-08-26T18:11:18.398Z,0.80
2022-08-26T18:13:47.613Z,0.95
2022-08-26T18:16:16.861Z,0.52
2022-08-26T18:18:45.143Z,7.90
2022-08-26T18:21:16.732Z,1.08
2022-08-26T18:23:45.604Z,0.65
2022-08-26T18:26:18.196Z,0.60
2022-08-26T18:28:46.226Z,1.02
2022-08-26T18:31:15.295Z,0.40
2022-08-26T18:33:44.136Z,1.75
2022-08-26T18:36:19.541Z,0.50
2022-08-26T18:38:48.048Z,2.17
2022-08-26T18:41:20.729Z,0.68
2022-08-26T18:43:50.379Z,0.40
2022-08-26T18:46:20.187Z,0.52
2022-08-26T18:48:50.712Z,1.48
2022-08-26T18:51:23.368Z,4.78
2022-08-26T18:53:51.977Z,3.22
2022-08-26T18:56:20.022Z,1.92
2022-08-26T18:58:48.527Z,2.78
2022-08-26T19:01:17.625Z,0.82
2022-08-26T19:03:46.392Z,0.70
2022-08-26T19:06:15.695Z,0.70
2022-08-26T19:08:46.114Z,0.60
2022-08-26T19:11:32.063Z,0.75
2022-08-26T19:14:03.446Z,1.00
2022-08-26T19:16:32.113Z,1.30
2022-08-26T19:19:01.489Z,1.65
2022-08-26T19:21:30.700Z,0.90
2022-08-26T19:24:02.670Z,0.80
2022-08-26T19:26:31.540Z,0.90
2022-08-26T19:29:00.153Z,1.23
2022-08-26T19:31:28.584Z,0.98
2022-08-26T19:33:58.060Z,0.75
2022-08-26T19:36:26.788Z,0.93
2022-08-26T19:38:55.867Z,0.90
2022-08-26T19:41:37.254Z,0.93
2022-08-26T19:44:08.261Z,1.33
2022-08-26T19:49:10.483Z,0.88
2022-08-26T19:51:38.682Z,1.00
2022-08-26T19:54:07.118Z,1.23
2022-08-26T19:56:36.619Z,1.35
2022-08-26T19:59:04.913Z,0.80
2022-08-26T20:01:32.965Z,1.00
2022-08-26T20:04:01.168Z,1.15
2022-08-26T20:06:29.190Z,1.30
2022-08-26T20:08:57.283Z,1.10
2022-08-26T20:11:25.833Z,1.40
2022-08-26T20:13:55.346Z,0.68
2022-08-26T20:16:23.481Z,2.22
2022-08-26T20:19:08.756Z,1.20
2022-08-26T20:21:39.817Z,1.15
2022-08-26T20:24:09.909Z,1.15
2022-08-26T20:26:39.878Z,0.93
2022-08-26T20:29:11.383Z,1.38
2022-08-26T20:31:40.415Z,0.98
2022-08-26T20:34:08.448Z,1.25
2022-08-26T20:36:36.502Z,1.05
2022-08-26T20:39:05.417Z,1.25
2022-08-26T20:41:33.617Z,1.17
2022-08-26T20:44:01.957Z,0.98
2022-08-26T20:46:31.487Z,1.38
2022-08-26T20:48:59.485Z,2.00
2022-08-26T20:51:28.757Z,2.33
2022-08-26T20:53:56.894Z,1.17
2022-08-26T20:56:25.017Z,1.42
2022-08-26T20:58:55.225Z,1.38
2022-08-26T21:01:25.983Z,1.38
2022-08-26T21:03:56.866Z,1.15
2022-08-26T21:06:24.950Z,1.13
2022-08-26T21:08:52.982Z,1.35
2022-08-26T21:11:21.506Z,2.45
2022-08-26T21:14:04.449Z,1.80
2022-08-26T21:16:36.029Z,1.40
2022-08-26T21:19:06.400Z,1.67
2022-08-26T21:21:35.348Z,1.27
2022-08-26T21:24:03.859Z,1.30
2022-08-26T21:26:31.996Z,1.38
2022-08-26T21:29:02.291Z,1.88
2022-08-26T21:31:31.947Z,1.30
2022-08-26T21:34:00.691Z,1.45
2022-08-26T21:36:30.193Z,1.20
2022-08-26T21:38:58.274Z,2.17
2022-08-26T21:41:27.682Z,1.63
2022-08-26T21:43:59.217Z,1.60
2022-08-26T21:46:29.611Z,1.67
2022-08-26T21:49:00.123Z,1.27
2022-08-26T21:51:31.904Z,1.70
2022-08-26T21:54:01.729Z,2.17
2022-08-26T21:56:32.520Z,1.95
2022-08-26T21:59:01.353Z,1.95
2022-08-26T22:01:34.937Z,1.55
2022-08-26T22:04:06.864Z,1.65
2022-08-26T22:06:42.331Z,2.00
2022-08-26T22:09:11.325Z,1.30
2022-08-26T22:11:39.439Z,2.97
2022-08-26T22:14:07.657Z,1.70
2022-08-26T22:16:35.734Z,1.30
2022-08-26T22:19:03.796Z,1.50
2022-08-26T22:21:32.153Z,1.25
2022-08-26T22:24:01.685Z,1.42
2022-08-26T22:26:32.607Z,1.88
2022-08-26T22:29:02.444Z,2.58
2022-08-26T22:31:37.571Z,1.45
2022-08-26T22:34:07.387Z,1.73
2022-08-26T22:36:35.560Z,4.75
2022-08-26T22:39:06.820Z,1.90
2022-08-26T22:41:38.464Z,1.50
2022-08-26T22:44:06.495Z,1.50
2022-08-26T22:46:35.044Z,2.50
2022-08-26T22:49:04.588Z,2.33
2022-08-26T22:51:33.388Z,2.55
2022-08-26T22:54:01.677Z,2.75
2022-08-26T22:56:31.224Z,4.03
2022-08-26T22:58:59.163Z,1.60
2022-08-26T23:01:27.538Z,2.97
2022-08-26T23:03:55.539Z,2.17
2022-08-26T23:06:23.597Z,2.95
2022-08-26T23:08:53.120Z,4.05
2022-08-26T23:11:21.096Z,1.80
2022-08-26T23:13:50.440Z,2.97
2022-08-26T23:16:18.543Z,2.05
2022-08-26T23:18:47.065Z,2.97
2022-08-26T23:21:15.232Z,2.50
2022-08-26T23:23:44.326Z,4.95
2022-08-26T23:26:17.449Z,2.40
2022-08-26T23:28:45.828Z,2.95
2022-08-26T23:31:15.392Z,2.45
2022-08-26T23:34:00.716Z,3.60
2022-08-26T23:36:31.036Z,2.30
2022-08-26T23:39:03.236Z,3.42
2022-08-26T23:41:31.216Z,3.42
2022-08-26T23:44:03.286Z,2.22
2022-08-26T23:46:33.253Z,3.55
2022-08-26T23:49:01.493Z,2.00
2022-08-26T23:51:46.954Z,2.00
2022-08-26T23:54:16.349Z,1.85
2022-08-26T23:56:44.860Z,3.42
2022-08-26T23:59:12.828Z,3.25
